TAF and METAR

METAR for Ekofisk Oil Pltf

ENLE 242350Z 18012KT 9999 FEW020 BKN035 16/13 Q1019 W14/S4
Report created 25. jun 01:50
wind 12 knots from S (180°) visibility > 10km some clouds (~25% cover) at 2000 feet broken clouds (~75% cover) at 3500 feet Temperature 16° with dewpoint at 13° (Humidity 82.40%) Pressure 1019 hPa

TAF for Ekofisk Oil Pltf

TAF ENLE 242300Z 2500/2509 16015KT 9999 FEW030 BKN050 TEMPO 2500/2503 4000 SHRA SCT030CB BKN040 PROB30 TEMPO 2500/2504 TS BECMG 2500/2502 VRB07KT PROB40 2503/2509 0100 FG VV001
Report created 25. jun 01:00

between 25. jun 02:00 - 25. jun 11:00

wind 15 knots from SSE (160°) visibility > 10km some clouds (~25% cover) at 3000 feet broken clouds (~75% cover) at 5000 feet

temporarily between 25. jun 02:00 - 25. jun 05:00

visibility 4000 meters rain showers scattered clouds (~50% cover) at 3000 feet of type cumulonimbus broken clouds (~75% cover) at 4000 feet

probably (~30%) temporarily between 25. jun 02:00 - 25. jun 06:00

thunderstorm

becoming between 25. jun 02:00 - 25. jun 04:00

wind 7 knots from various directions

probably (~40%) between 25. jun 05:00 - 25. jun 11:00

visibility 100 meters fog vertical visibility 100 feet